Time;durP1;ratioP1;P1;durP2;ratioP2;P2;SDS_P1;SDS_P2;PMS_P1;PMS_P2;Temp;Humidity;BMP_temperature;BMP_pressure;BME280_temperature;BME280_humidity;BME280_pressure;Samples;Min_cycle;Max_cycle;Signal;HPM_P1;HPM_P2
2023/07/14 00:03:37;;;;;;;4.22;1.30;;;27.90;53.70;;;;;;10523698;28;20484;-41
2023/07/14 00:08:40;;;;;;;3.35;1.13;;;27.80;53.80;;;;;;10533290;28;20037;-41
2023/07/14 00:13:42;;;;;;;4.28;1.70;;;27.80;53.90;;;;;;10546826;28;20055;-37
2023/07/14 00:18:46;;;;;;;3.33;1.40;;;27.60;54.00;;;;;;10539018;28;20047;-37
2023/07/14 00:23:48;;;;;;;2.70;0.93;;;27.50;54.10;;;;;;10540413;28;20086;-35
2023/07/14 00:28:51;;;;;;;4.07;1.40;;;27.20;55.10;;;;;;10538769;28;20044;-35
2023/07/14 00:33:55;;;;;;;3.70;1.52;;;26.60;55.70;;;;;;10543642;28;20040;-40
2023/07/14 00:38:57;;;;;;;2.75;1.25;;;27.40;54.60;;;;;;10539519;28;20048;-38
2023/07/14 00:43:59;;;;;;;3.58;1.45;;;27.60;54.10;;;;;;10541107;28;20055;-37
2023/07/14 00:49:06;;;;;;;1.90;1.05;;;27.00;54.60;;;;;;10532872;28;20047;-37
2023/07/14 00:54:23;;;;;;;3.20;1.15;;;27.30;54.50;;;;;;10534038;28;20047;-35
2023/07/14 00:59:32;;;;;;;3.35;1.60;;;27.50;54.20;;;;;;10528770;28;20048;-39
2023/07/14 01:04:35;;;;;;;3.97;1.45;;;27.40;54.40;;;;;;10534941;28;20051;-33
2023/07/14 01:09:38;;;;;;;3.22;1.48;;;27.50;54.10;;;;;;10529975;28;20056;-41
2023/07/14 01:14:46;;;;;;;2.75;1.20;;;27.40;54.20;;;;;;10525132;28;20481;-39
2023/07/14 01:19:53;;;;;;;5.07;1.70;;;27.40;54.20;;;;;;10518742;28;20060;-41
2023/07/14 01:25:03;;;;;;;3.70;1.40;;;27.20;54.40;;;;;;10533617;28;20115;-37
2023/07/14 01:30:08;;;;;;;3.80;1.33;;;27.50;54.10;;;;;;10531321;28;20465;-39
2023/07/14 01:35:11;;;;;;;3.28;1.38;;;27.30;54.50;;;;;;10536846;28;20566;-40
2023/07/14 01:40:17;;;;;;;5.47;1.42;;;27.40;54.20;;;;;;10532936;28;20415;-39
2023/07/14 01:45:21;;;;;;;2.33;1.08;;;27.30;54.00;;;;;;10530954;28;20404;-35
2023/07/14 01:50:26;;;;;;;2.55;1.00;;;27.40;54.00;;;;;;10534354;28;20481;-40
2023/07/14 01:55:34;;;;;;;2.15;1.20;;;27.20;54.40;;;;;;10525399;28;20055;-41
2023/07/14 02:00:39;;;;;;;2.47;1.40;;;27.40;54.10;;;;;;10543378;28;20101;-42
2023/07/14 02:05:41;;;;;;;3.33;1.15;;;27.40;54.10;;;;;;10523326;28;20036;-41
2023/07/14 02:10:44;;;;;;;3.03;1.38;;;27.30;54.20;;;;;;10542841;28;20401;-39
2023/07/14 02:15:48;;;;;;;3.63;1.52;;;27.20;54.20;;;;;;10535362;28;20465;-36
2023/07/14 02:20:52;;;;;;;3.13;1.27;;;27.30;54.20;;;;;;10533542;28;20476;-40
2023/07/14 02:26:04;;;;;;;2.03;1.33;;;27.30;54.20;;;;;;10551250;28;20356;-38
2023/07/14 02:31:15;;;;;;;5.35;1.63;;;27.30;54.20;;;;;;10537411;28;20050;-38
2023/07/14 02:36:27;;;;;;;2.88;1.15;;;27.30;54.30;;;;;;10550568;28;20097;-38
2023/07/14 02:41:32;;;;;;;2.95;1.40;;;27.30;54.30;;;;;;10540301;28;20048;-41
2023/07/14 02:46:41;;;;;;;2.47;1.10;;;27.30;54.30;;;;;;10527709;28;20655;-37
2023/07/14 02:51:43;;;;;;;4.20;1.40;;;27.20;54.20;;;;;;10538939;28;20056;-38
2023/07/14 02:56:45;;;;;;;2.75;1.30;;;27.20;54.30;;;;;;10525408;28;20613;-35
2023/07/14 03:15:30;;;;;;;2.83;1.23;;;27.20;53.80;;;;;;10557989;27;20117;-35
2023/07/14 03:20:32;;;;;;;2.05;1.23;;;27.10;54.50;;;;;;10526533;28;20050;-34
2023/07/14 03:25:35;;;;;;;4.78;1.63;;;27.00;54.50;;;;;;10533729;28;20044;-34
2023/07/14 03:30:40;;;;;;;2.85;1.30;;;27.10;54.50;;;;;;10528069;28;20041;-34
2023/07/14 03:35:42;;;;;;;3.88;1.40;;;27.00;54.50;;;;;;10529993;28;20106;-32
2023/07/14 03:40:44;;;;;;;4.93;1.75;;;27.10;54.60;;;;;;10532933;28;20048;-34
2023/07/14 03:45:48;;;;;;;7.47;1.50;;;27.00;54.70;;;;;;10525717;28;20083;-31
2023/07/14 03:50:49;;;;;;;2.05;1.30;;;27.00;54.60;;;;;;10522860;28;20048;-33
2023/07/14 03:55:51;;;;;;;3.67;1.58;;;26.90;54.60;;;;;;10525435;28;20048;-34
2023/07/14 04:00:59;;;;;;;3.72;1.58;;;26.90;54.60;;;;;;10524902;28;20090;-33
2023/07/14 04:06:01;;;;;;;3.95;1.52;;;27.00;54.80;;;;;;10528439;28;20048;-34
2023/07/14 04:11:03;;;;;;;3.50;1.40;;;27.00;54.80;;;;;;10523001;28;20059;-33
2023/07/14 04:16:08;;;;;;;2.45;1.38;;;27.00;54.80;;;;;;10525797;28;20040;-34
2023/07/14 04:21:11;;;;;;;3.78;1.52;;;26.90;54.80;;;;;;10539022;28;20131;-33
2023/07/14 04:26:14;;;;;;;6.25;1.70;;;26.90;54.80;;;;;;10512024;28;20045;-33
2023/07/14 04:31:18;;;;;;;4.32;1.55;;;26.90;54.70;;;;;;10492412;28;20501;-32
2023/07/14 04:36:20;;;;;;;3.38;1.77;;;26.90;54.80;;;;;;10494382;28;20044;-34
2023/07/14 04:41:22;;;;;;;7.00;1.50;;;26.90;54.80;;;;;;10497380;28;20060;-32
2023/07/14 04:46:25;;;;;;;4.00;1.50;;;26.90;54.90;;;;;;10516742;28;20048;-34
2023/07/14 04:51:27;;;;;;;3.53;1.38;;;26.90;54.80;;;;;;10499349;28;20515;-34
2023/07/14 04:56:30;;;;;;;6.75;1.80;;;26.80;54.90;;;;;;10492094;28;20127;-34
2023/07/14 05:01:33;;;;;;;4.82;1.40;;;26.90;54.90;;;;;;10509693;28;20067;-34
2023/07/14 05:06:35;;;;;;;5.18;1.90;;;26.80;54.90;;;;;;10490419;28;20052;-35
2023/07/14 05:11:38;;;;;;;5.80;1.65;;;26.90;55.00;;;;;;10488896;28;20106;-33
2023/07/14 05:16:41;;;;;;;9.00;1.75;;;26.80;55.00;;;;;;10485282;28;20037;-33
2023/07/14 05:21:43;;;;;;;2.92;1.75;;;26.90;55.10;;;;;;10496785;28;20056;-34
2023/07/14 05:26:45;;;;;;;2.88;1.65;;;26.70;55.40;;;;;;10501202;28;20048;-33
2023/07/14 05:31:48;;;;;;;3.20;1.38;;;26.90;55.10;;;;;;10490445;28;20053;-34
2023/07/14 05:36:51;;;;;;;5.18;2.40;;;26.80;55.40;;;;;;10489580;28;20533;-34
2023/07/14 05:41:53;;;;;;;4.38;2.00;;;26.80;55.10;;;;;;10495545;28;20056;-34
2023/07/14 05:46:56;;;;;;;4.50;1.92;;;26.30;56.50;;;;;;10487031;28;20400;-35
2023/07/14 05:51:58;;;;;;;4.35;1.70;;;26.50;56.10;;;;;;10496578;28;20048;-34
2023/07/14 05:57:00;;;;;;;4.80;2.25;;;26.70;55.80;;;;;;10504705;28;20051;-34
2023/07/14 06:02:04;;;;;;;5.80;2.60;;;26.20;56.70;;;;;;10484883;28;20048;-32
2023/07/14 06:07:07;;;;;;;5.22;2.17;;;26.50;56.00;;;;;;10486685;28;20401;-35
2023/07/14 06:12:11;;;;;;;4.90;2.55;;;26.70;55.70;;;;;;10483706;28;20088;-33
2023/07/14 06:17:14;;;;;;;4.32;1.92;;;26.70;55.70;;;;;;10490496;28;20109;-34
2023/07/14 06:22:17;;;;;;;4.43;1.95;;;26.90;55.30;;;;;;10489508;28;20044;-34
2023/07/14 06:27:19;;;;;;;7.28;3.33;;;26.90;55.30;;;;;;10483374;28;20053;-34
2023/07/14 06:32:22;;;;;;;6.43;2.42;;;26.30;56.50;;;;;;10483162;28;20774;-33
2023/07/14 06:37:25;;;;;;;4.32;2.28;;;26.50;56.30;;;;;;10486870;28;20036;-34
2023/07/14 06:42:27;;;;;;;8.80;2.95;;;26.70;55.60;;;;;;10485888;28;20045;-35
2023/07/14 06:47:30;;;;;;;9.10;3.63;;;25.40;58.30;;;;;;10485881;28;20405;-39
2023/07/14 06:52:33;;;;;;;3.38;2.03;;;25.20;59.50;;;;;;10492450;28;20064;-34
2023/07/14 06:57:35;;;;;;;6.70;2.53;;;26.50;56.10;;;;;;10473351;28;20390;-34
2023/07/14 07:02:38;;;;;;;7.78;2.50;;;26.50;56.10;;;;;;10496399;28;20070;-35
2023/07/14 07:07:40;;;;;;;8.43;2.78;;;26.70;55.70;;;;;;10488798;28;20048;-34
2023/07/14 07:12:42;;;;;;;6.45;3.53;;;26.60;55.60;;;;;;10506713;28;20118;-33
2023/07/14 07:17:46;;;;;;;5.40;2.58;;;26.50;56.10;;;;;;10485088;28;20676;-34
2023/07/14 07:22:49;;;;;;;7.88;3.03;;;26.60;55.80;;;;;;10487776;28;20134;-34
2023/07/14 07:27:51;;;;;;;6.28;3.50;;;26.70;55.80;;;;;;10485142;28;20052;-35
2023/07/14 07:32:54;;;;;;;5.78;2.28;;;26.60;56.20;;;;;;10477561;28;20070;-35
2023/07/14 07:37:56;;;;;;;9.25;3.33;;;26.10;57.20;;;;;;10491684;28;20047;-31
2023/07/14 07:42:58;;;;;;;10.88;3.30;;;26.70;55.90;;;;;;10488955;28;20051;-34
2023/07/14 07:48:01;;;;;;;4.43;2.65;;;26.60;55.90;;;;;;10474020;28;20079;-34
2023/07/14 07:53:04;;;;;;;9.15;2.83;;;26.20;57.00;;;;;;10490505;28;20570;-35
2023/07/14 07:58:06;;;;;;;8.73;2.88;;;26.20;57.20;;;;;;10491241;28;20056;-34
2023/07/14 08:03:09;;;;;;;11.32;3.97;;;26.00;57.40;;;;;;10495245;28;20109;-34
2023/07/14 08:08:11;;;;;;;5.25;3.00;;;23.80;65.80;;;;;;10494296;28;20043;-35
2023/07/14 08:13:14;;;;;;;4.85;2.50;;;24.50;63.00;;;;;;10498796;28;20055;-34
2023/07/14 08:18:17;;;;;;;7.43;3.10;;;25.70;59.50;;;;;;10488281;28;20083;-33
2023/07/14 08:23:22;;;;;;;3.97;2.10;;;26.50;56.50;;;;;;10496317;28;20048;-36
2023/07/14 08:28:25;;;;;;;4.18;2.20;;;26.70;56.20;;;;;;10509683;28;20071;-35
2023/07/14 08:33:29;;;;;;;5.32;1.92;;;27.10;55.60;;;;;;10500220;28;20048;-34
2023/07/14 08:38:32;;;;;;;11.32;3.05;;;26.90;55.90;;;;;;10497515;28;20101;-35
2023/07/14 08:43:45;;;;;;;7.90;2.63;;;25.80;57.20;;;;;;10505838;28;20135;-35
2023/07/14 08:48:57;;;;;;;6.43;2.45;;;25.90;56.90;;;;;;10508342;28;20078;-34
2023/07/14 08:54:06;;;;;;;4.30;2.25;;;26.10;57.50;;;;;;10501168;28;20045;-34
2023/07/14 08:59:15;;;;;;;6.95;2.60;;;26.50;56.50;;;;;;10483204;28;20226;-32
2023/07/14 09:04:22;;;;;;;5.38;2.35;;;26.00;55.30;;;;;;10499947;28;20120;-35
2023/07/14 09:09:32;;;;;;;5.55;2.15;;;25.90;57.40;;;;;;10494416;28;20409;-35
2023/07/14 09:14:47;;;;;;;9.07;2.50;;;26.60;55.20;;;;;;10489161;28;20098;-34
2023/07/14 09:20:21;;;;;;;7.30;2.42;;;26.50;56.10;;;;;;10501412;28;20059;-34
2023/07/14 09:25:32;;;;;;;4.50;2.70;;;25.60;56.00;;;;;;10495925;28;20052;-34
2023/07/14 09:30:35;;;;;;;4.50;2.15;;;25.00;58.90;;;;;;10490383;28;20055;-35
2023/07/14 09:35:40;;;;;;;4.85;1.85;;;24.50;56.00;;;;;;10488168;28;20377;-34
2023/07/14 09:40:47;;;;;;;4.53;1.80;;;25.60;57.80;;;;;;10504179;28;20109;-34
2023/07/14 09:45:54;;;;;;;6.93;1.95;;;26.70;55.00;;;;;;10499748;28;20045;-34
2023/07/14 09:51:01;;;;;;;3.63;2.20;;;25.90;56.70;;;;;;10497500;28;20056;-37
2023/07/14 09:56:07;;;;;;;4.90;1.50;;;26.50;54.30;;;;;;10487118;28;20432;-34
2023/07/14 10:01:15;;;;;;;2.75;1.83;;;26.00;55.60;;;;;;10489638;28;20061;-34
2023/07/14 10:06:24;;;;;;;3.50;1.80;;;26.80;52.90;;;;;;10489954;28;20104;-34
2023/07/14 10:11:28;;;;;;;2.63;1.58;;;26.20;55.30;;;;;;10488207;28;20048;-34
2023/07/14 10:16:32;;;;;;;5.25;2.40;;;26.50;55.00;;;;;;10479455;28;20156;-34
2023/07/14 10:21:36;;;;;;;5.72;2.58;;;25.80;54.40;;;;;;10481256;28;20362;-32
2023/07/14 10:26:42;;;;;;;2.60;1.80;;;26.70;55.10;;;;;;10493932;28;20045;-35
2023/07/14 10:31:51;;;;;;;2.65;2.13;;;27.30;53.80;;;;;;10476535;28;20054;-35
2023/07/14 10:36:58;;;;;;;5.10;2.50;;;27.40;53.50;;;;;;10488295;28;20048;-34
2023/07/14 10:42:00;;;;;;;4.82;2.30;;;27.60;53.10;;;;;;10474837;28;20076;-34
2023/07/14 10:47:10;;;;;;;4.95;2.67;;;27.60;53.00;;;;;;10492314;28;20040;-40
2023/07/14 10:52:19;;;;;;;5.45;2.88;;;27.60;53.10;;;;;;10476746;28;20052;-37
2023/07/14 10:57:42;;;;;;;5.72;3.50;;;27.70;52.70;;;;;;10487177;28;20495;-40
2023/07/14 11:02:49;;;;;;;5.32;2.65;;;27.80;52.70;;;;;;10494493;28;20058;-40
2023/07/14 11:07:53;;;;;;;4.88;2.53;;;27.80;52.50;;;;;;10500441;28;20135;-35
2023/07/14 11:13:05;;;;;;;2.92;1.95;;;27.70;52.30;;;;;;10501713;28;20151;-36
2023/07/14 11:18:19;;;;;;;2.65;1.58;;;27.80;52.70;;;;;;10483033;28;20049;-39
2023/07/14 11:23:29;;;;;;;2.30;1.67;;;27.90;51.30;;;;;;10490296;28;20473;-40
2023/07/14 11:28:39;;;;;;;4.20;2.33;;;27.80;52.30;;;;;;10489922;28;20078;-38
2023/07/14 11:33:50;;;;;;;4.43;2.30;;;27.50;52.50;;;;;;10486367;28;20048;-36
2023/07/14 11:38:59;;;;;;;3.63;2.03;;;27.80;52.60;;;;;;10486762;28;20444;-39
2023/07/14 11:44:05;;;;;;;5.68;2.88;;;28.20;50.80;;;;;;10510222;28;20063;-39
2023/07/14 11:49:24;;;;;;;7.38;2.28;;;27.90;53.00;;;;;;10493501;28;20048;-39
2023/07/14 11:54:41;;;;;;;4.82;1.90;;;28.40;51.50;;;;;;10506624;28;20129;-37
2023/07/14 11:59:58;;;;;;;3.60;2.28;;;28.60;51.20;;;;;;10513799;28;20072;-42
2023/07/14 12:05:04;;;;;;;3.55;1.85;;;28.50;51.40;;;;;;10489287;28;20074;-39
2023/07/14 12:10:15;;;;;;;3.58;1.77;;;28.40;51.00;;;;;;10499253;28;20124;-37
2023/07/14 12:15:46;;;;;;;3.35;1.95;;;28.60;51.30;;;;;;10490697;28;20174;-42
2023/07/14 12:20:48;;;;;;;2.60;1.60;;;28.50;51.20;;;;;;10491740;28;20094;-40
2023/07/14 12:25:58;;;;;;;2.15;1.85;;;28.60;51.00;;;;;;10490862;28;20068;-41
2023/07/14 12:31:04;;;;;;;3.67;2.05;;;28.70;51.00;;;;;;10493152;28;20044;-39
2023/07/14 12:36:06;;;;;;;2.70;1.90;;;28.70;50.90;;;;;;10495022;28;20049;-37
2023/07/14 12:41:12;;;;;;;3.10;1.90;;;28.70;50.70;;;;;;10496090;28;20124;-36
2023/07/14 12:46:25;;;;;;;2.17;1.83;;;28.70;48.50;;;;;;10497829;28;20394;-38
2023/07/14 12:51:28;;;;;;;4.18;1.92;;;28.60;51.00;;;;;;10491566;28;20047;-39
2023/07/14 12:56:33;;;;;;;1.90;1.58;;;28.80;50.60;;;;;;10486701;28;20040;-39
2023/07/14 13:01:35;;;;;;;2.97;1.98;;;28.70;49.60;;;;;;10507862;28;20071;-38
2023/07/14 13:06:37;;;;;;;1.60;1.50;;;28.50;49.20;;;;;;10492793;28;20036;-39
2023/07/14 13:11:42;;;;;;;4.25;2.20;;;29.00;50.60;;;;;;10497524;28;20048;-38
2023/07/14 13:16:44;;;;;;;5.25;1.80;;;29.10;50.20;;;;;;10509076;28;20502;-39
2023/07/14 13:21:49;;;;;;;4.20;1.63;;;29.20;49.80;;;;;;10501289;28;20447;-41
2023/07/14 13:26:56;;;;;;;2.92;1.65;;;29.20;50.50;;;;;;10496722;28;20119;-44
2023/07/14 13:32:02;;;;;;;3.20;1.88;;;29.30;50.30;;;;;;10500477;28;20546;-37
2023/07/14 13:37:05;;;;;;;3.78;2.30;;;29.00;50.70;;;;;;10502073;28;20048;-40
2023/07/14 13:42:29;;;;;;;3.58;2.28;;;29.20;50.60;;;;;;10495173;28;20071;-38
2023/07/14 13:47:43;;;;;;;3.97;2.50;;;29.30;50.20;;;;;;10486965;28;20043;-39
2023/07/14 13:52:45;;;;;;;3.15;1.98;;;29.20;51.20;;;;;;10494996;28;20128;-38
2023/07/14 13:57:50;;;;;;;5.00;2.35;;;29.40;50.40;;;;;;10478362;28;20472;-38
2023/07/14 14:02:53;;;;;;;4.30;2.40;;;29.30;50.50;;;;;;10489243;28;20076;-38
2023/07/14 14:07:55;;;;;;;6.90;3.63;;;29.50;50.30;;;;;;10476025;28;20080;-41
2023/07/14 14:13:00;;;;;;;4.45;2.13;;;29.50;50.30;;;;;;10482337;28;20093;-39
2023/07/14 14:18:04;;;;;;;4.50;1.88;;;29.30;50.10;;;;;;10489662;28;20083;-36
2023/07/14 14:23:06;;;;;;;2.53;1.50;;;29.30;50.20;;;;;;10484650;28;20161;-36
2023/07/14 14:28:10;;;;;;;4.28;1.85;;;29.40;50.20;;;;;;10489350;28;20040;-39
2023/07/14 14:33:14;;;;;;;3.72;1.40;;;29.50;50.20;;;;;;10495612;28;20476;-42
2023/07/14 14:38:19;;;;;;;2.17;1.67;;;29.50;50.40;;;;;;10471385;28;20071;-37
2023/07/14 14:43:25;;;;;;;4.80;1.60;;;29.50;50.30;;;;;;10490059;28;20044;-40
2023/07/14 14:48:28;;;;;;;4.53;1.10;;;29.40;50.90;;;;;;10490431;28;20044;-39
2023/07/14 14:53:34;;;;;;;2.88;1.70;;;29.60;50.40;;;;;;10497402;28;20150;-39
2023/07/14 14:58:37;;;;;;;3.25;1.40;;;29.40;50.30;;;;;;10480173;28;20144;-37
2023/07/14 15:03:39;;;;;;;3.65;1.27;;;29.60;50.40;;;;;;10491851;28;20587;-37
2023/07/14 15:08:41;;;;;;;5.07;1.40;;;29.50;50.20;;;;;;10490334;28;20072;-40
2023/07/14 15:13:44;;;;;;;5.75;1.77;;;29.40;50.40;;;;;;10497555;28;20164;-39
2023/07/14 15:18:46;;;;;;;3.08;1.48;;;29.50;50.40;;;;;;10478557;28;20078;-37
2023/07/14 15:23:49;;;;;;;2.80;1.70;;;29.30;50.60;;;;;;10493577;28;20056;-38
2023/07/14 15:28:53;;;;;;;4.38;1.70;;;29.40;50.60;;;;;;10480789;28;20524;-37
2023/07/14 15:33:55;;;;;;;1.75;1.35;;;29.40;50.50;;;;;;10476751;28;20520;-39
2023/07/14 15:38:57;;;;;;;3.50;1.63;;;29.40;50.50;;;;;;10493991;28;20075;-39
2023/07/14 15:44:00;;;;;;;5.80;1.50;;;29.40;50.50;;;;;;10471351;28;20525;-39
2023/07/14 15:49:04;;;;;;;2.15;1.38;;;29.50;50.50;;;;;;10492967;28;20635;-36
2023/07/14 15:54:07;;;;;;;2.10;1.40;;;29.50;50.50;;;;;;10487366;28;20053;-35
2023/07/14 15:59:11;;;;;;;3.72;1.60;;;29.50;51.10;;;;;;10478287;28;20040;-35
2023/07/14 16:04:13;;;;;;;3.33;1.15;;;29.50;50.70;;;;;;10488262;28;20444;-36
2023/07/14 16:09:20;;;;;;;5.22;1.80;;;29.50;50.80;;;;;;10478008;28;20680;-36
2023/07/14 16:14:24;;;;;;;2.60;1.60;;;29.40;50.70;;;;;;10484785;28;20082;-36
2023/07/14 16:19:26;;;;;;;2.67;1.50;;;29.50;50.70;;;;;;10476974;28;20135;-40
2023/07/14 16:24:33;;;;;;;3.45;1.63;;;29.50;50.80;;;;;;10495650;28;20045;-37
2023/07/14 16:29:37;;;;;;;2.28;1.58;;;29.50;50.80;;;;;;10499358;28;20056;-41
2023/07/14 16:34:40;;;;;;;4.93;1.48;;;29.50;50.70;;;;;;10489943;28;20123;-42
2023/07/14 16:39:43;;;;;;;3.55;1.80;;;29.50;50.70;;;;;;10509153;28;20651;-39
2023/07/14 16:44:46;;;;;;;3.40;2.00;;;29.50;50.70;;;;;;10497979;28;20396;-40
2023/07/14 16:49:49;;;;;;;3.72;2.67;;;29.50;50.90;;;;;;10495723;28;20133;-43
2023/07/14 16:54:51;;;;;;;7.53;2.58;;;29.50;50.80;;;;;;10480133;28;20448;-40
2023/07/14 16:59:55;;;;;;;5.60;1.90;;;29.40;50.80;;;;;;10495140;28;20121;-44
2023/07/14 17:04:58;;;;;;;4.03;2.42;;;29.40;50.80;;;;;;10488494;28;20045;-43
2023/07/14 17:10:00;;;;;;;5.82;2.28;;;29.40;50.90;;;;;;10488642;28;20172;-39
2023/07/14 17:15:06;;;;;;;4.70;1.48;;;29.40;50.90;;;;;;10491863;28;20489;-36
2023/07/14 17:20:13;;;;;;;1.92;1.65;;;29.40;50.90;;;;;;10487794;28;20041;-40
2023/07/14 17:25:22;;;;;;;3.10;1.83;;;29.50;51.00;;;;;;10480989;28;20040;-40
2023/07/14 17:30:25;;;;;;;8.13;2.60;;;29.50;51.00;;;;;;10480895;28;20087;-44
2023/07/14 17:35:28;;;;;;;4.75;2.17;;;29.10;52.70;;;;;;10491292;28;20494;-42
2023/07/14 17:40:32;;;;;;;3.72;1.90;;;29.10;53.80;;;;;;10489945;28;20064;-43
2023/07/14 17:45:36;;;;;;;5.90;2.63;;;29.30;52.90;;;;;;10492700;28;20433;-39
2023/07/14 17:50:38;;;;;;;4.50;1.77;;;29.40;52.40;;;;;;10487520;28;20045;-40
2023/07/14 17:55:42;;;;;;;1.63;1.50;;;29.40;52.30;;;;;;10491816;28;20179;-39
2023/07/14 18:00:46;;;;;;;3.78;1.60;;;29.40;51.90;;;;;;10492078;28;20535;-40
2023/07/14 18:05:48;;;;;;;3.08;1.60;;;29.50;51.90;;;;;;10490094;28;20125;-43
2023/07/14 18:10:53;;;;;;;4.07;1.70;;;29.50;51.80;;;;;;10494674;28;20102;-41
2023/07/14 18:15:57;;;;;;;3.47;1.50;;;29.50;51.80;;;;;;10484703;28;20166;-44
2023/07/14 18:21:00;;;;;;;2.42;1.52;;;29.50;51.80;;;;;;10486729;28;20060;-40
2023/07/14 18:26:02;;;;;;;2.75;1.80;;;29.50;51.80;;;;;;10489797;28;20488;-38
2023/07/14 18:31:14;;;;;;;1.77;1.38;;;29.50;51.90;;;;;;10481436;28;20068;-39
2023/07/14 18:36:16;;;;;;;2.47;1.70;;;29.50;51.80;;;;;;10493174;28;20056;-39
2023/07/14 18:41:19;;;;;;;3.38;1.58;;;29.50;51.80;;;;;;10478326;28;20123;-39
2023/07/14 18:46:23;;;;;;;3.33;1.33;;;29.40;51.80;;;;;;10489619;28;20064;-40
2023/07/14 18:51:29;;;;;;;2.65;1.92;;;29.40;52.40;;;;;;10477330;28;20052;-40
2023/07/14 18:56:31;;;;;;;3.47;1.70;;;29.40;51.80;;;;;;10498476;28;20051;-36
2023/07/14 19:01:35;;;;;;;1.88;1.50;;;29.40;51.80;;;;;;10485933;28;20095;-38
2023/07/14 19:06:36;;;;;;;2.08;1.25;;;29.30;52.00;;;;;;10494042;28;20091;-42
2023/07/14 19:11:40;;;;;;;3.33;1.77;;;29.30;52.00;;;;;;10486282;28;20183;-41
2023/07/14 19:16:45;;;;;;;2.72;1.50;;;29.30;51.90;;;;;;10484129;28;20045;-45
2023/07/14 19:21:48;;;;;;;4.28;1.60;;;29.30;52.00;;;;;;10473433;28;20049;-38
2023/07/14 19:26:52;;;;;;;3.22;1.70;;;29.30;52.10;;;;;;10495923;28;20571;-38
2023/07/14 19:31:56;;;;;;;2.00;1.40;;;29.20;52.10;;;;;;10488590;28;20052;-42
2023/07/14 19:36:58;;;;;;;2.85;1.40;;;29.20;52.20;;;;;;10492683;28;20044;-41
2023/07/14 19:42:00;;;;;;;3.25;1.48;;;29.20;52.20;;;;;;10486061;28;20056;-39
2023/07/14 19:47:16;;;;;;;2.22;1.58;;;29.20;52.30;;;;;;10482775;28;20045;-40
2023/07/14 19:52:18;;;;;;;2.08;1.63;;;29.10;52.30;;;;;;10473143;28;20507;-40
2023/07/14 19:57:20;;;;;;;3.25;1.60;;;29.10;52.40;;;;;;10485611;28;20049;-37
2023/07/14 20:02:25;;;;;;;3.70;1.63;;;29.10;52.50;;;;;;10486515;28;20093;-38
2023/07/14 20:07:27;;;;;;;1.77;1.23;;;29.10;52.60;;;;;;10481124;28;20067;-41
2023/07/14 20:12:29;;;;;;;2.35;1.70;;;29.10;52.70;;;;;;10502095;28;20105;-44
2023/07/14 20:17:32;;;;;;;1.85;1.27;;;29.10;52.70;;;;;;10492829;28;20508;-42
2023/07/14 20:22:34;;;;;;;4.07;1.90;;;29.00;52.70;;;;;;10480876;28;20060;-37
2023/07/14 20:27:36;;;;;;;3.60;1.65;;;29.00;52.80;;;;;;10490123;28;20567;-38
2023/07/14 20:32:40;;;;;;;3.22;1.60;;;29.00;52.80;;;;;;10482426;28;20101;-39
2023/07/14 20:37:41;;;;;;;4.93;1.85;;;29.00;53.00;;;;;;10469476;28;20159;-41
2023/07/14 20:42:43;;;;;;;6.10;1.50;;;28.90;52.90;;;;;;10487756;28;20052;-38
2023/07/14 20:47:47;;;;;;;2.97;1.77;;;29.00;53.00;;;;;;10480562;28;20135;-38
2023/07/14 20:52:49;;;;;;;2.40;1.42;;;28.90;53.00;;;;;;10494837;28;20049;-44
2023/07/14 20:57:51;;;;;;;2.80;1.90;;;28.90;53.10;;;;;;10491229;28;20133;-41
2023/07/14 21:02:55;;;;;;;3.75;1.90;;;28.80;53.10;;;;;;10488423;28;20037;-37
2023/07/14 21:07:57;;;;;;;2.15;1.50;;;28.80;53.20;;;;;;10484239;28;20432;-38
2023/07/14 21:12:58;;;;;;;3.10;1.85;;;28.80;53.80;;;;;;10487243;28;20362;-39
2023/07/14 21:18:02;;;;;;;2.90;1.65;;;28.80;53.20;;;;;;10481998;28;20044;-42
2023/07/14 21:23:08;;;;;;;4.88;1.90;;;28.80;53.30;;;;;;10486886;28;20143;-41
2023/07/14 21:28:13;;;;;;;6.30;1.73;;;28.70;53.30;;;;;;10487932;28;20071;-38
2023/07/14 21:33:18;;;;;;;3.47;1.67;;;28.70;53.30;;;;;;10492367;28;20055;-37
2023/07/14 21:38:20;;;;;;;3.05;1.58;;;28.70;53.40;;;;;;10488042;28;20125;-38
2023/07/14 21:43:24;;;;;;;6.50;2.20;;;28.70;53.50;;;;;;10478787;28;20076;-39
2023/07/14 21:48:28;;;;;;;3.47;1.40;;;28.70;53.50;;;;;;10468262;28;20131;-37
2023/07/14 21:53:31;;;;;;;4.93;2.55;;;28.70;53.50;;;;;;10486465;28;20473;-39
2023/07/14 21:58:34;;;;;;;3.38;1.40;;;28.70;53.50;;;;;;10492462;28;20197;-39
2023/07/14 22:03:37;;;;;;;3.03;1.90;;;28.60;53.50;;;;;;10484566;28;20062;-41
2023/07/14 22:08:39;;;;;;;2.63;1.75;;;28.60;53.50;;;;;;10469951;28;20048;-44
2023/07/14 22:13:41;;;;;;;3.20;1.98;;;28.60;53.60;;;;;;10482113;28;20152;-40
2023/07/14 22:18:47;;;;;;;3.05;1.73;;;28.60;53.60;;;;;;10481633;28;20056;-40
2023/07/14 22:23:50;;;;;;;1.92;1.35;;;28.50;53.60;;;;;;10463269;28;20047;-39
2023/07/14 22:28:52;;;;;;;4.22;1.60;;;28.50;53.60;;;;;;10469129;28;20120;-40
2023/07/14 22:33:58;;;;;;;2.47;1.90;;;28.50;53.60;;;;;;10475125;28;20128;-39
2023/07/14 22:39:00;;;;;;;3.72;1.80;;;28.50;53.70;;;;;;10473684;28;20509;-36
2023/07/14 22:44:04;;;;;;;2.47;1.95;;;28.50;53.60;;;;;;10478586;28;20047;-37
2023/07/14 22:49:09;;;;;;;2.67;1.58;;;28.50;53.70;;;;;;10474853;28;20072;-38
2023/07/14 22:54:12;;;;;;;2.63;1.85;;;28.50;53.60;;;;;;10468612;28;20499;-40
2023/07/14 22:59:14;;;;;;;1.77;1.35;;;28.50;53.70;;;;;;10481725;28;20044;-42
2023/07/14 23:04:17;;;;;;;2.45;1.77;;;28.40;53.60;;;;;;10487432;28;20056;-37
2023/07/14 23:09:20;;;;;;;2.70;1.65;;;28.50;53.70;;;;;;10489492;28;20837;-38
2023/07/14 23:14:22;;;;;;;5.05;1.65;;;28.40;53.60;;;;;;10488498;28;20485;-40
2023/07/14 23:19:26;;;;;;;2.80;1.52;;;28.40;53.70;;;;;;10491277;28;20096;-39
2023/07/14 23:24:28;;;;;;;2.55;1.65;;;28.40;53.60;;;;;;10487577;28;20044;-38
2023/07/14 23:29:30;;;;;;;1.98;1.60;;;28.40;53.60;;;;;;10490715;28;20050;-40
2023/07/14 23:34:33;;;;;;;3.22;2.00;;;28.40;54.30;;;;;;10488803;28;20044;-40
2023/07/14 23:39:36;;;;;;;4.15;1.73;;;28.40;53.70;;;;;;10497138;28;20474;-42
2023/07/14 23:44:38;;;;;;;2.03;1.60;;;28.30;53.70;;;;;;10494002;28;20071;-36
2023/07/14 23:49:41;;;;;;;5.63;2.33;;;28.30;53.80;;;;;;10498361;28;20087;-38
2023/07/14 23:54:43;;;;;;;2.88;1.52;;;28.00;54.10;;;;;;10497244;28;20048;-40
2023/07/14 23:59:45;;;;;;;2.42;1.45;;;28.10;54.20;;;;;;10501064;28;20079;-37
